createdAt,value
2022-12-02T00:01:54.317Z,102079.81
2022-12-02T00:06:53.281Z,102088.50
2022-12-02T00:11:51.139Z,102089.97
2022-12-02T00:16:49.164Z,102086.63
2022-12-02T00:21:50.000Z,102090.28
2022-12-02T00:26:48.657Z,102101.28
2022-12-02T00:31:47.039Z,102087.53
2022-12-02T00:36:48.180Z,102091.84
2022-12-02T00:41:46.079Z,102097.03
2022-12-02T00:46:44.099Z,102096.31
2022-12-02T00:51:42.861Z,102098.03
2022-12-02T00:56:42.396Z,102088.50
2022-12-02T01:01:44.784Z,102086.81
2022-12-02T01:06:42.900Z,102083.34
2022-12-02T01:11:42.171Z,102083.28
2022-12-02T01:16:41.737Z,102081.50
2022-12-02T01:21:39.732Z,102079.88
2022-12-02T01:26:38.916Z,102077.41
2022-12-02T01:31:39.412Z,102067.13
2022-12-02T01:36:37.773Z,102073.03
2022-12-02T01:41:35.711Z,102077.25
2022-12-02T01:46:33.624Z,102070.28
2022-12-02T01:51:32.839Z,102075.56
2022-12-02T01:56:30.714Z,102076.44
2022-12-02T02:01:29.686Z,102078.19
2022-12-02T02:06:28.793Z,102087.63
2022-12-02T02:11:28.680Z,102087.59
2022-12-02T02:16:31.023Z,102085.84
2022-12-02T02:21:32.564Z,102083.38
2022-12-02T02:26:32.027Z,102090.25
2022-12-02T02:31:30.943Z,102084.97
2022-12-02T02:36:30.618Z,102088.50
2022-12-02T02:41:28.764Z,102090.22
2022-12-02T02:46:28.202Z,102098.81
2022-12-02T02:51:26.300Z,102094.56
2022-12-02T02:56:24.403Z,102092.00
2022-12-02T03:01:25.517Z,102093.72
2022-12-02T03:06:26.059Z,102097.03
2022-12-02T03:11:24.478Z,102090.34
2022-12-02T03:16:23.799Z,102088.41
2022-12-02T03:21:22.103Z,102089.34
2022-12-02T03:26:21.493Z,102091.19
2022-12-02T03:31:19.390Z,102087.78
2022-12-02T03:36:17.469Z,102084.41
2022-12-02T03:41:15.800Z,102091.16
2022-12-02T03:46:15.574Z,102092.00
2022-12-02T03:51:14.532Z,102096.19
2022-12-02T03:56:12.741Z,102102.28
2022-12-02T04:01:10.700Z,102099.63
2022-12-02T04:06:10.340Z,102099.56
2022-12-02T04:11:08.479Z,102094.56
2022-12-02T04:16:06.733Z,102099.69
2022-12-02T04:21:04.664Z,102099.72
2022-12-02T04:26:03.863Z,102099.63
2022-12-02T04:31:01.878Z,102103.13
2022-12-02T04:35:59.881Z,102098.00
2022-12-02T04:40:57.726Z,102097.09
2022-12-02T04:45:56.963Z,102108.28
2022-12-02T04:50:54.858Z,102110.88
2022-12-02T04:55:52.731Z,102110.09
2022-12-02T05:00:50.543Z,102122.94
2022-12-02T05:05:49.758Z,102119.56
2022-12-02T05:10:47.688Z,102119.56
2022-12-02T05:15:45.627Z,102117.63
2022-12-02T05:20:43.575Z,102124.53
2022-12-02T05:25:43.022Z,102122.94
2022-12-02T05:30:40.878Z,102123.78
2022-12-02T05:35:41.348Z,102135.00
2022-12-02T05:40:39.196Z,102134.94
2022-12-02T05:45:39.414Z,102150.25
2022-12-02T05:50:37.371Z,102147.03
2022-12-02T05:55:36.181Z,102147.78
2022-12-02T06:00:34.033Z,102159.03
2022-12-02T06:05:37.909Z,102162.47
2022-12-02T06:10:38.620Z,102169.25
2022-12-02T06:15:39.055Z,102165.94
2022-12-02T06:20:38.331Z,102177.84
2022-12-02T06:25:37.829Z,102183.78
2022-12-02T06:30:35.853Z,102185.50
2022-12-02T06:35:34.504Z,102187.31
2022-12-02T06:40:36.561Z,102197.59
2022-12-02T06:45:35.499Z,102193.47
2022-12-02T06:50:40.590Z,102193.47
2022-12-02T06:55:41.702Z,102192.56
2022-12-02T07:00:44.884Z,102199.38
2022-12-02T07:05:42.717Z,102202.16
2022-12-02T07:10:42.089Z,102200.47
2022-12-02T07:15:43.523Z,102208.22
2022-12-02T07:20:43.949Z,102205.63
2022-12-02T07:25:44.975Z,102215.94
2022-12-02T07:30:45.918Z,102208.13
2022-12-02T07:35:43.840Z,102212.47
2022-12-02T07:40:43.310Z,102212.47
2022-12-02T07:45:42.662Z,102214.09
2022-12-02T07:50:40.675Z,102197.84
2022-12-02T07:55:38.554Z,102202.25
2022-12-02T08:00:36.898Z,102210.94
2022-12-02T08:05:36.224Z,102219.34
2022-12-02T08:10:34.194Z,102222.88
2022-12-02T08:15:32.008Z,102219.41
2022-12-02T08:20:30.795Z,102228.81
2022-12-02T08:25:29.952Z,102226.22
2022-12-02T08:30:27.939Z,102214.31
2022-12-02T08:35:25.975Z,102222.06
2022-12-02T08:40:23.793Z,102237.41
2022-12-02T08:45:23.094Z,102238.41
2022-12-02T08:50:21.067Z,102234.06
2022-12-02T08:55:19.000Z,102240.22
2022-12-02T09:00:17.348Z,102231.50
2022-12-02T09:05:16.633Z,102221.25
2022-12-02T09:10:14.943Z,102220.28
2022-12-02T09:15:12.815Z,102207.53
2022-12-02T09:20:11.205Z,102208.38
2022-12-02T09:25:10.583Z,102210.88
2022-12-02T09:30:09.330Z,102223.81
2022-12-02T09:35:07.640Z,102216.00
2022-12-02T09:40:06.447Z,102216.72
2022-12-02T09:45:06.341Z,102212.63
2022-12-02T09:50:04.590Z,102204.09
2022-12-02T09:55:04.016Z,102197.28
2022-12-02T10:00:04.865Z,102204.13
2022-12-02T10:05:08.533Z,102199.84
2022-12-02T10:10:07.075Z,102192.16
2022-12-02T10:15:05.678Z,102186.91
2022-12-02T10:20:06.280Z,102191.28
2022-12-02T10:25:04.267Z,102190.44
2022-12-02T10:30:16.083Z,102185.25
2022-12-02T10:35:15.456Z,102181.84
2022-12-02T10:40:16.014Z,102185.31
2022-12-02T10:45:21.819Z,102174.97
2022-12-02T10:50:22.646Z,102171.53
2022-12-02T10:55:21.105Z,102161.22
2022-12-02T11:00:20.685Z,102166.28
2022-12-02T11:05:20.448Z,102162.91
2022-12-02T11:10:21.917Z,102163.81
2022-12-02T11:15:38.306Z,102156.03
2022-12-02T11:20:37.917Z,102140.59
2022-12-02T11:25:54.647Z,102138.84
2022-12-02T11:31:14.494Z,102141.44
2022-12-02T11:36:15.902Z,102150.03
2022-12-02T11:41:13.876Z,102160.31
2022-12-02T11:46:11.828Z,102162.09
2022-12-02T11:51:29.563Z,102172.41
2022-12-02T11:56:33.483Z,102178.44
2022-12-02T12:01:33.212Z,102188.75
2022-12-02T12:06:35.000Z,102184.44
2022-12-02T12:11:35.250Z,102178.44
2022-12-02T12:16:34.957Z,102173.28
2022-12-02T12:21:46.282Z,102157.78
2022-12-02T12:26:44.959Z,102175.84
2022-12-02T12:31:42.868Z,102168.09
2022-12-02T12:36:40.730Z,102169.81
2022-12-02T12:42:00.205Z,102165.50
2022-12-02T12:47:00.088Z,102166.38
2022-12-02T12:51:58.499Z,102164.63
2022-12-02T12:57:00.280Z,102162.03
2022-12-02T13:01:58.526Z,102169.81
2022-12-02T13:06:56.521Z,102167.25
2022-12-02T13:11:54.474Z,102174.97
2022-12-02T13:16:53.757Z,102175.88
2022-12-02T13:21:51.741Z,102187.88
2022-12-02T13:26:49.502Z,102183.59
2022-12-02T13:31:47.499Z,102178.38
2022-12-02T13:36:46.953Z,102183.53
2022-12-02T13:41:45.008Z,102190.44
2022-12-02T13:46:43.061Z,102184.41
2022-12-02T13:51:40.985Z,102195.59
2022-12-02T13:56:40.315Z,102199.91
2022-12-02T14:01:38.422Z,102211.09
2022-12-02T14:06:36.950Z,102205.94
2022-12-02T14:11:34.859Z,102221.44
2022-12-02T14:16:34.460Z,102227.47
2022-12-02T14:21:32.332Z,102216.28
2022-12-02T14:26:30.433Z,102236.94
2022-12-02T14:31:28.327Z,102227.47
2022-12-02T14:36:27.835Z,102236.94
2022-12-02T14:41:25.644Z,102236.06
2022-12-02T14:46:23.525Z,102231.78
2022-12-02T14:51:23.742Z,102231.78
2022-12-02T14:56:23.271Z,102245.53
2022-12-02T15:01:25.018Z,102247.28
2022-12-02T15:06:25.487Z,102247.28
2022-12-02T15:11:24.719Z,102255.88
2022-12-02T15:16:26.050Z,102255.88
2022-12-02T15:21:24.079Z,102261.06
2022-12-02T15:26:22.135Z,102267.06
2022-12-02T15:31:21.893Z,102261.91
2022-12-02T15:36:19.861Z,102258.47
2022-12-02T15:41:17.957Z,102271.38
2022-12-02T15:46:20.122Z,102271.38
2022-12-02T15:51:19.787Z,102280.84
2022-12-02T15:56:19.065Z,102285.16
2022-12-02T16:01:17.050Z,102287.75
2022-12-02T16:06:14.957Z,102290.34
2022-12-02T16:11:14.276Z,102296.38
2022-12-02T16:16:12.165Z,102298.06
2022-12-02T16:21:10.024Z,102295.50
2022-12-02T16:26:07.936Z,102287.75
2022-12-02T16:31:07.742Z,102295.47
2022-12-02T16:36:05.896Z,102294.63
2022-12-02T16:41:03.911Z,102286.00
2022-12-02T16:46:03.850Z,102286.00
2022-12-02T16:51:03.394Z,102298.06
2022-12-02T16:56:01.463Z,102298.94
2022-12-02T17:00:59.343Z,102297.19
2022-12-02T17:05:57.282Z,102298.91
2022-12-02T17:10:56.479Z,102303.22
2022-12-02T17:15:54.536Z,102311.00
2022-12-02T17:20:55.670Z,102315.31
2022-12-02T17:25:53.903Z,102321.34
2022-12-02T17:30:53.748Z,102310.13
2022-12-02T17:35:53.962Z,102309.25
2022-12-02T17:41:11.514Z,102314.47
2022-12-02T17:46:10.838Z,102326.53
2022-12-02T17:51:08.732Z,102322.22
2022-12-02T17:56:07.151Z,102311.88
2022-12-02T18:01:11.376Z,102310.16
2022-12-02T18:06:11.630Z,102312.72
2022-12-02T18:11:09.544Z,102311.00
2022-12-02T18:16:08.791Z,102314.44
2022-12-02T18:21:06.727Z,102322.16
2022-12-02T18:26:06.250Z,102321.34
2022-12-02T18:31:05.618Z,102324.75
2022-12-02T18:36:04.299Z,102333.38
2022-12-02T18:41:02.900Z,102323.06
2022-12-02T18:46:02.341Z,102327.34
2022-12-02T18:51:00.308Z,102340.28
2022-12-02T18:55:58.204Z,102344.59
2022-12-02T19:00:56.172Z,102338.56
2022-12-02T19:05:58.329Z,102352.34
2022-12-02T19:10:56.211Z,102360.06
2022-12-02T19:15:54.387Z,102361.78
2022-12-02T19:20:52.340Z,102358.38
2022-12-02T19:25:51.988Z,102367.00
2022-12-02T19:30:50.409Z,102367.84
2022-12-02T19:35:49.111Z,102368.69
2022-12-02T19:40:47.313Z,102379.00
2022-12-02T19:45:46.724Z,102379.88
2022-12-02T19:50:48.442Z,102382.47
2022-12-02T19:55:46.508Z,102384.22
2022-12-02T20:00:45.874Z,102386.81
2022-12-02T20:05:50.368Z,102384.25
2022-12-02T20:10:49.193Z,102385.09
2022-12-02T20:15:53.541Z,102389.41
2022-12-02T20:21:02.214Z,102392.00
2022-12-02T20:26:00.249Z,102402.31
2022-12-02T20:30:58.885Z,102403.19
2022-12-02T20:35:58.915Z,102404.06
2022-12-02T20:40:58.368Z,102409.19
2022-12-02T20:45:59.252Z,102407.47
2022-12-02T20:50:59.371Z,102410.09
2022-12-02T20:55:57.519Z,102408.38
2022-12-02T21:00:56.646Z,102404.94
2022-12-02T21:05:58.795Z,102398.91
2022-12-02T21:10:58.575Z,102404.94
2022-12-02T21:15:56.797Z,102416.13
2022-12-02T21:20:54.792Z,102410.94
2022-12-02T21:25:53.718Z,102410.13
2022-12-02T21:30:53.425Z,102411.81
2022-12-02T21:35:51.359Z,102415.25
2022-12-02T21:40:52.050Z,102409.25
2022-12-02T21:45:50.207Z,102409.25
2022-12-02T21:50:49.842Z,102412.69
2022-12-02T21:55:47.696Z,102414.41
2022-12-02T22:00:47.340Z,102403.22
2022-12-02T22:05:46.152Z,102402.34
2022-12-02T22:10:45.525Z,102402.31
2022-12-02T22:15:43.348Z,102404.88
2022-12-02T22:20:42.387Z,102405.75
2022-12-02T22:25:40.252Z,102403.16
2022-12-02T22:30:39.647Z,102405.72
2022-12-02T22:35:39.576Z,102403.19
2022-12-02T22:40:37.588Z,102403.19
2022-12-02T22:45:35.598Z,102404.91
2022-12-02T22:50:34.887Z,102401.47
2022-12-02T22:55:32.767Z,102399.75
2022-12-02T23:00:31.363Z,102398.84
2022-12-02T23:05:29.767Z,102403.16
2022-12-02T23:10:29.225Z,102402.28
2022-12-02T23:15:38.397Z,102402.28
2022-12-02T23:20:37.199Z,102400.47
2022-12-02T23:25:36.623Z,102409.16
2022-12-02T23:30:34.628Z,102391.94
2022-12-02T23:35:32.578Z,102386.78
2022-12-02T23:40:30.403Z,102374.63
2022-12-02T23:45:29.618Z,102376.38
2022-12-02T23:50:27.646Z,102378.16
2022-12-02T23:55:25.492Z,102379.84
